sensor_id;sensor_type;location;lat;lon;timestamp;P1;durP1;ratioP1;P2;durP2;ratioP2
62696;SDS011;48761;42.680;23.312;2023-04-06T00:00:55;14.32;;;10.02;;
62696;SDS011;48761;42.680;23.312;2023-04-06T00:03:21;13.93;;;10.50;;
62696;SDS011;48761;42.680;23.312;2023-04-06T00:05:47;14.90;;;10.57;;
62696;SDS011;48761;42.680;23.312;2023-04-06T00:08:13;17.63;;;11.18;;
62696;SDS011;48761;42.680;23.312;2023-04-06T00:10:39;16.42;;;10.93;;
62696;SDS011;48761;42.680;23.312;2023-04-06T00:13:05;15.85;;;10.13;;
62696;SDS011;48761;42.680;23.312;2023-04-06T00:15:32;14.15;;;10.45;;
62696;SDS011;48761;42.680;23.312;2023-04-06T00:17:58;13.77;;;9.52;;
62696;SDS011;48761;42.680;23.312;2023-04-06T00:20:23;14.55;;;9.73;;
62696;SDS011;48761;42.680;23.312;2023-04-06T00:22:49;14.13;;;10.05;;
62696;SDS011;48761;42.680;23.312;2023-04-06T00:25:15;14.43;;;9.88;;
62696;SDS011;48761;42.680;23.312;2023-04-06T00:27:41;13.98;;;10.32;;
62696;SDS011;48761;42.680;23.312;2023-04-06T00:30:08;15.65;;;9.38;;
62696;SDS011;48761;42.680;23.312;2023-04-06T00:32:34;14.82;;;9.85;;
62696;SDS011;48761;42.680;23.312;2023-04-06T00:35:02;15.05;;;10.07;;
62696;SDS011;48761;42.680;23.312;2023-04-06T00:37:28;14.32;;;10.35;;
62696;SDS011;48761;42.680;23.312;2023-04-06T00:39:54;15.13;;;10.30;;
62696;SDS011;48761;42.680;23.312;2023-04-06T00:42:21;15.25;;;10.60;;
62696;SDS011;48761;42.680;23.312;2023-04-06T00:44:47;15.93;;;10.27;;
62696;SDS011;48761;42.680;23.312;2023-04-06T00:47:13;14.45;;;10.65;;
62696;SDS011;48761;42.680;23.312;2023-04-06T00:49:39;14.48;;;10.63;;
62696;SDS011;48761;42.680;23.312;2023-04-06T00:52:05;17.10;;;10.45;;
62696;SDS011;48761;42.680;23.312;2023-04-06T00:54:31;15.10;;;10.48;;
62696;SDS011;48761;42.680;23.312;2023-04-06T00:56:56;14.55;;;10.52;;
62696;SDS011;48761;42.680;23.312;2023-04-06T00:59:23;14.93;;;10.38;;
62696;SDS011;48761;42.680;23.312;2023-04-06T01:01:49;13.57;;;9.52;;
62696;SDS011;48761;42.680;23.312;2023-04-06T01:04:14;13.93;;;9.77;;
62696;SDS011;48761;42.680;23.312;2023-04-06T01:06:40;13.82;;;10.00;;
62696;SDS011;48761;42.680;23.312;2023-04-06T01:09:06;13.50;;;9.85;;
62696;SDS011;48761;42.680;23.312;2023-04-06T01:11:32;14.23;;;9.93;;
62696;SDS011;48761;42.680;23.312;2023-04-06T01:13:58;15.05;;;10.05;;
62696;SDS011;48761;42.680;23.312;2023-04-06T01:16:24;14.05;;;9.43;;
62696;SDS011;48761;42.680;23.312;2023-04-06T01:18:50;16.67;;;10.73;;
62696;SDS011;48761;42.680;23.312;2023-04-06T01:21:16;14.90;;;10.43;;
62696;SDS011;48761;42.680;23.312;2023-04-06T01:23:43;13.85;;;9.88;;
62696;SDS011;48761;42.680;23.312;2023-04-06T01:26:12;13.48;;;9.32;;
62696;SDS011;48761;42.680;23.312;2023-04-06T01:28:38;13.65;;;9.25;;
62696;SDS011;48761;42.680;23.312;2023-04-06T01:31:05;13.98;;;9.43;;
62696;SDS011;48761;42.680;23.312;2023-04-06T01:33:32;12.23;;;8.70;;
62696;SDS011;48761;42.680;23.312;2023-04-06T01:35:58;13.40;;;8.73;;
62696;SDS011;48761;42.680;23.312;2023-04-06T01:38:24;15.25;;;8.70;;
62696;SDS011;48761;42.680;23.312;2023-04-06T01:40:50;13.30;;;8.20;;
62696;SDS011;48761;42.680;23.312;2023-04-06T01:43:16;13.10;;;9.02;;
62696;SDS011;48761;42.680;23.312;2023-04-06T01:45:41;11.55;;;8.60;;
62696;SDS011;48761;42.680;23.312;2023-04-06T01:48:07;12.80;;;9.10;;
62696;SDS011;48761;42.680;23.312;2023-04-06T01:50:33;16.40;;;9.93;;
62696;SDS011;48761;42.680;23.312;2023-04-06T01:52:59;13.13;;;9.13;;
62696;SDS011;48761;42.680;23.312;2023-04-06T01:55:25;12.73;;;8.95;;
62696;SDS011;48761;42.680;23.312;2023-04-06T01:57:51;12.75;;;9.23;;
62696;SDS011;48761;42.680;23.312;2023-04-06T02:00:17;15.50;;;10.00;;
62696;SDS011;48761;42.680;23.312;2023-04-06T02:02:43;13.68;;;9.65;;
62696;SDS011;48761;42.680;23.312;2023-04-06T02:05:09;11.88;;;9.00;;
62696;SDS011;48761;42.680;23.312;2023-04-06T02:07:35;13.70;;;9.25;;
62696;SDS011;48761;42.680;23.312;2023-04-06T02:10:01;13.52;;;9.02;;
62696;SDS011;48761;42.680;23.312;2023-04-06T02:12:27;12.45;;;9.20;;
62696;SDS011;48761;42.680;23.312;2023-04-06T02:14:53;12.60;;;8.57;;
62696;SDS011;48761;42.680;23.312;2023-04-06T02:17:19;12.45;;;8.82;;
62696;SDS011;48761;42.680;23.312;2023-04-06T02:19:45;10.05;;;7.65;;
62696;SDS011;48761;42.680;23.312;2023-04-06T02:22:11;12.95;;;8.77;;
62696;SDS011;48761;42.680;23.312;2023-04-06T02:24:37;11.82;;;8.73;;
62696;SDS011;48761;42.680;23.312;2023-04-06T02:27:03;12.40;;;8.15;;
62696;SDS011;48761;42.680;23.312;2023-04-06T02:29:29;17.05;;;8.45;;
62696;SDS011;48761;42.680;23.312;2023-04-06T02:31:55;12.93;;;8.80;;
62696;SDS011;48761;42.680;23.312;2023-04-06T02:34:21;12.82;;;9.73;;
62696;SDS011;48761;42.680;23.312;2023-04-06T02:36:47;14.40;;;9.68;;
62696;SDS011;48761;42.680;23.312;2023-04-06T02:39:13;12.35;;;9.07;;
62696;SDS011;48761;42.680;23.312;2023-04-06T02:41:39;13.50;;;8.98;;
62696;SDS011;48761;42.680;23.312;2023-04-06T02:44:08;13.57;;;8.82;;
62696;SDS011;48761;42.680;23.312;2023-04-06T02:46:34;14.13;;;9.35;;
62696;SDS011;48761;42.680;23.312;2023-04-06T02:49:00;12.68;;;8.90;;
62696;SDS011;48761;42.680;23.312;2023-04-06T02:51:26;14.40;;;9.73;;
62696;SDS011;48761;42.680;23.312;2023-04-06T02:53:52;14.07;;;9.95;;
62696;SDS011;48761;42.680;23.312;2023-04-06T02:56:18;12.93;;;8.90;;
62696;SDS011;48761;42.680;23.312;2023-04-06T02:58:44;12.10;;;8.90;;
62696;SDS011;48761;42.680;23.312;2023-04-06T03:01:10;13.57;;;9.85;;
62696;SDS011;48761;42.680;23.312;2023-04-06T03:03:36;13.63;;;8.82;;
62696;SDS011;48761;42.680;23.312;2023-04-06T03:06:02;12.13;;;8.38;;
62696;SDS011;48761;42.680;23.312;2023-04-06T03:08:28;12.63;;;8.93;;
62696;SDS011;48761;42.680;23.312;2023-04-06T03:10:54;11.98;;;8.32;;
62696;SDS011;48761;42.680;23.312;2023-04-06T03:13:20;11.18;;;8.27;;
62696;SDS011;48761;42.680;23.312;2023-04-06T03:15:46;13.48;;;9.63;;
62696;SDS011;48761;42.680;23.312;2023-04-06T03:18:12;14.68;;;9.77;;
62696;SDS011;48761;42.680;23.312;2023-04-06T03:20:38;12.70;;;9.20;;
62696;SDS011;48761;42.680;23.312;2023-04-06T03:23:04;14.80;;;9.80;;
62696;SDS011;48761;42.680;23.312;2023-04-06T03:25:30;15.15;;;9.88;;
62696;SDS011;48761;42.680;23.312;2023-04-06T03:27:56;13.68;;;9.50;;
62696;SDS011;48761;42.680;23.312;2023-04-06T03:30:21;13.93;;;9.38;;
62696;SDS011;48761;42.680;23.312;2023-04-06T03:32:47;16.15;;;10.15;;
62696;SDS011;48761;42.680;23.312;2023-04-06T03:35:13;16.13;;;10.10;;
62696;SDS011;48761;42.680;23.312;2023-04-06T03:37:39;14.30;;;9.93;;
62696;SDS011;48761;42.680;23.312;2023-04-06T03:40:05;16.95;;;10.02;;
62696;SDS011;48761;42.680;23.312;2023-04-06T03:42:31;15.35;;;10.40;;
62696;SDS011;48761;42.680;23.312;2023-04-06T03:44:58;15.27;;;10.30;;
62696;SDS011;48761;42.680;23.312;2023-04-06T03:47:24;13.05;;;9.40;;
62696;SDS011;48761;42.680;23.312;2023-04-06T03:49:50;15.88;;;9.93;;
62696;SDS011;48761;42.680;23.312;2023-04-06T03:52:16;13.10;;;9.38;;
62696;SDS011;48761;42.680;23.312;2023-04-06T03:54:42;13.32;;;9.43;;
62696;SDS011;48761;42.680;23.312;2023-04-06T03:57:08;13.52;;;9.13;;
62696;SDS011;48761;42.680;23.312;2023-04-06T03:59:34;15.98;;;9.63;;
62696;SDS011;48761;42.680;23.312;2023-04-06T04:02:00;14.48;;;9.70;;
62696;SDS011;48761;42.680;23.312;2023-04-06T04:04:25;15.23;;;10.60;;
62696;SDS011;48761;42.680;23.312;2023-04-06T04:06:51;14.45;;;9.82;;
62696;SDS011;48761;42.680;23.312;2023-04-06T04:09:17;16.25;;;9.70;;
62696;SDS011;48761;42.680;23.312;2023-04-06T04:11:43;13.18;;;9.75;;
62696;SDS011;48761;42.680;23.312;2023-04-06T04:14:09;15.98;;;9.77;;
62696;SDS011;48761;42.680;23.312;2023-04-06T04:16:35;15.23;;;9.77;;
62696;SDS011;48761;42.680;23.312;2023-04-06T04:19:01;13.95;;;9.27;;
62696;SDS011;48761;42.680;23.312;2023-04-06T04:21:28;16.90;;;9.70;;
62696;SDS011;48761;42.680;23.312;2023-04-06T04:23:55;14.20;;;9.52;;
62696;SDS011;48761;42.680;23.312;2023-04-06T04:26:20;15.35;;;9.82;;
62696;SDS011;48761;42.680;23.312;2023-04-06T04:28:46;17.00;;;9.98;;
62696;SDS011;48761;42.680;23.312;2023-04-06T04:31:12;15.80;;;9.10;;
62696;SDS011;48761;42.680;23.312;2023-04-06T04:33:38;17.35;;;9.27;;
62696;SDS011;48761;42.680;23.312;2023-04-06T04:36:04;19.58;;;10.15;;
62696;SDS011;48761;42.680;23.312;2023-04-06T04:38:30;18.33;;;10.13;;
62696;SDS011;48761;42.680;23.312;2023-04-06T04:40:56;14.35;;;9.85;;
62696;SDS011;48761;42.680;23.312;2023-04-06T04:43:22;17.35;;;9.77;;
62696;SDS011;48761;42.680;23.312;2023-04-06T04:45:49;20.15;;;10.77;;
62696;SDS011;48761;42.680;23.312;2023-04-06T04:48:15;15.27;;;9.52;;
62696;SDS011;48761;42.680;23.312;2023-04-06T04:50:41;15.75;;;10.00;;
62696;SDS011;48761;42.680;23.312;2023-04-06T04:53:06;16.48;;;9.82;;
62696;SDS011;48761;42.680;23.312;2023-04-06T04:55:32;14.73;;;10.32;;
62696;SDS011;48761;42.680;23.312;2023-04-06T04:57:58;19.92;;;10.77;;
62696;SDS011;48761;42.680;23.312;2023-04-06T05:00:24;23.67;;;10.23;;
62696;SDS011;48761;42.680;23.312;2023-04-06T05:02:50;16.20;;;10.00;;
62696;SDS011;48761;42.680;23.312;2023-04-06T05:05:16;16.27;;;10.07;;
62696;SDS011;48761;42.680;23.312;2023-04-06T05:07:42;22.00;;;10.90;;
62696;SDS011;48761;42.680;23.312;2023-04-06T05:10:08;48.08;;;25.52;;
62696;SDS011;48761;42.680;23.312;2023-04-06T05:12:34;55.25;;;32.58;;
62696;SDS011;48761;42.680;23.312;2023-04-06T05:15:00;16.33;;;11.32;;
62696;SDS011;48761;42.680;23.312;2023-04-06T05:17:26;17.35;;;10.88;;
62696;SDS011;48761;42.680;23.312;2023-04-06T05:19:52;16.67;;;11.05;;
62696;SDS011;48761;42.680;23.312;2023-04-06T05:22:18;23.20;;;12.13;;
62696;SDS011;48761;42.680;23.312;2023-04-06T05:24:44;17.55;;;10.90;;
62696;SDS011;48761;42.680;23.312;2023-04-06T05:27:10;28.50;;;12.13;;
62696;SDS011;48761;42.680;23.312;2023-04-06T05:29:36;27.63;;;12.60;;
62696;SDS011;48761;42.680;23.312;2023-04-06T05:32:02;29.42;;;13.15;;
62696;SDS011;48761;42.680;23.312;2023-04-06T05:34:28;21.65;;;11.70;;
62696;SDS011;48761;42.680;23.312;2023-04-06T05:36:54;21.65;;;11.25;;
62696;SDS011;48761;42.680;23.312;2023-04-06T05:39:20;20.95;;;12.98;;
62696;SDS011;48761;42.680;23.312;2023-04-06T05:41:45;20.52;;;13.80;;
62696;SDS011;48761;42.680;23.312;2023-04-06T05:44:11;20.30;;;12.85;;
62696;SDS011;48761;42.680;23.312;2023-04-06T05:46:37;19.38;;;12.93;;
62696;SDS011;48761;42.680;23.312;2023-04-06T05:49:03;25.13;;;14.73;;
62696;SDS011;48761;42.680;23.312;2023-04-06T05:51:29;22.92;;;13.50;;
62696;SDS011;48761;42.680;23.312;2023-04-06T05:53:55;18.83;;;12.70;;
62696;SDS011;48761;42.680;23.312;2023-04-06T05:56:21;25.17;;;13.18;;
62696;SDS011;48761;42.680;23.312;2023-04-06T05:58:47;22.40;;;13.13;;
62696;SDS011;48761;42.680;23.312;2023-04-06T06:01:13;30.05;;;17.65;;
62696;SDS011;48761;42.680;23.312;2023-04-06T06:03:39;31.52;;;19.30;;
62696;SDS011;48761;42.680;23.312;2023-04-06T06:06:05;26.35;;;17.05;;
62696;SDS011;48761;42.680;23.312;2023-04-06T06:08:31;31.60;;;17.42;;
62696;SDS011;48761;42.680;23.312;2023-04-06T06:10:57;32.00;;;18.48;;
62696;SDS011;48761;42.680;23.312;2023-04-06T06:13:23;24.95;;;14.52;;
62696;SDS011;48761;42.680;23.312;2023-04-06T06:15:50;43.35;;;23.80;;
62696;SDS011;48761;42.680;23.312;2023-04-06T06:18:16;29.48;;;18.30;;
62696;SDS011;48761;42.680;23.312;2023-04-06T06:20:42;29.83;;;19.33;;
62696;SDS011;48761;42.680;23.312;2023-04-06T06:23:08;24.02;;;15.57;;
62696;SDS011;48761;42.680;23.312;2023-04-06T06:25:34;29.30;;;18.02;;
62696;SDS011;48761;42.680;23.312;2023-04-06T06:28:00;27.48;;;16.83;;
62696;SDS011;48761;42.680;23.312;2023-04-06T06:30:26;27.05;;;17.02;;
62696;SDS011;48761;42.680;23.312;2023-04-06T06:32:52;29.25;;;18.73;;
62696;SDS011;48761;42.680;23.312;2023-04-06T06:35:18;19.77;;;14.00;;
62696;SDS011;48761;42.680;23.312;2023-04-06T06:37:44;24.80;;;14.93;;
62696;SDS011;48761;42.680;23.312;2023-04-06T06:40:10;27.65;;;14.50;;
62696;SDS011;48761;42.680;23.312;2023-04-06T06:42:36;27.63;;;15.63;;
62696;SDS011;48761;42.680;23.312;2023-04-06T06:45:02;20.50;;;13.50;;
62696;SDS011;48761;42.680;23.312;2023-04-06T06:47:29;20.17;;;13.63;;
62696;SDS011;48761;42.680;23.312;2023-04-06T06:49:55;22.17;;;13.93;;
62696;SDS011;48761;42.680;23.312;2023-04-06T06:52:21;24.35;;;14.23;;
62696;SDS011;48761;42.680;23.312;2023-04-06T06:54:47;20.08;;;13.10;;
62696;SDS011;48761;42.680;23.312;2023-04-06T06:57:13;18.05;;;12.32;;
62696;SDS011;48761;42.680;23.312;2023-04-06T06:59:39;18.45;;;12.10;;
62696;SDS011;48761;42.680;23.312;2023-04-06T07:02:04;23.35;;;12.75;;
62696;SDS011;48761;42.680;23.312;2023-04-06T07:04:30;19.52;;;13.63;;
62696;SDS011;48761;42.680;23.312;2023-04-06T07:06:57;20.30;;;13.73;;
62696;SDS011;48761;42.680;23.312;2023-04-06T07:09:23;20.67;;;12.85;;
62696;SDS011;48761;42.680;23.312;2023-04-06T07:11:49;17.15;;;11.95;;
62696;SDS011;48761;42.680;23.312;2023-04-06T07:14:15;19.67;;;12.25;;
62696;SDS011;48761;42.680;23.312;2023-04-06T07:16:41;19.20;;;12.27;;
62696;SDS011;48761;42.680;23.312;2023-04-06T07:19:07;19.10;;;11.45;;
62696;SDS011;48761;42.680;23.312;2023-04-06T07:21:33;24.15;;;13.15;;
62696;SDS011;48761;42.680;23.312;2023-04-06T07:23:59;22.55;;;12.88;;
62696;SDS011;48761;42.680;23.312;2023-04-06T07:26:25;20.92;;;13.55;;
62696;SDS011;48761;42.680;23.312;2023-04-06T07:28:51;19.92;;;13.82;;
62696;SDS011;48761;42.680;23.312;2023-04-06T07:31:17;20.70;;;13.80;;
62696;SDS011;48761;42.680;23.312;2023-04-06T07:33:43;22.80;;;14.25;;
62696;SDS011;48761;42.680;23.312;2023-04-06T07:36:09;25.65;;;12.32;;
62696;SDS011;48761;42.680;23.312;2023-04-06T07:38:35;18.40;;;12.68;;
62696;SDS011;48761;42.680;23.312;2023-04-06T07:41:01;19.92;;;12.40;;
62696;SDS011;48761;42.680;23.312;2023-04-06T07:43:27;20.40;;;13.55;;
62696;SDS011;48761;42.680;23.312;2023-04-06T07:45:53;21.17;;;13.13;;
62696;SDS011;48761;42.680;23.312;2023-04-06T07:48:19;18.33;;;12.25;;
62696;SDS011;48761;42.680;23.312;2023-04-06T07:50:45;23.73;;;13.70;;
62696;SDS011;48761;42.680;23.312;2023-04-06T07:53:11;27.45;;;14.85;;
62696;SDS011;48761;42.680;23.312;2023-04-06T07:55:38;16.73;;;11.90;;
62696;SDS011;48761;42.680;23.312;2023-04-06T07:58:04;20.63;;;12.90;;
62696;SDS011;48761;42.680;23.312;2023-04-06T08:00:30;16.27;;;12.30;;
62696;SDS011;48761;42.680;23.312;2023-04-06T08:02:56;20.00;;;12.02;;
62696;SDS011;48761;42.680;23.312;2023-04-06T08:05:22;17.65;;;11.75;;
62696;SDS011;48761;42.680;23.312;2023-04-06T08:07:48;14.60;;;10.55;;
62696;SDS011;48761;42.680;23.312;2023-04-06T08:10:14;18.27;;;11.95;;
62696;SDS011;48761;42.680;23.312;2023-04-06T08:12:40;18.33;;;12.38;;
62696;SDS011;48761;42.680;23.312;2023-04-06T08:15:06;17.33;;;11.80;;
62696;SDS011;48761;42.680;23.312;2023-04-06T08:17:32;17.80;;;11.63;;
62696;SDS011;48761;42.680;23.312;2023-04-06T08:19:58;17.48;;;12.10;;
62696;SDS011;48761;42.680;23.312;2023-04-06T08:22:24;16.23;;;10.70;;
62696;SDS011;48761;42.680;23.312;2023-04-06T08:24:50;15.13;;;10.68;;
62696;SDS011;48761;42.680;23.312;2023-04-06T08:27:16;14.52;;;10.65;;
62696;SDS011;48761;42.680;23.312;2023-04-06T08:29:42;14.75;;;10.60;;
62696;SDS011;48761;42.680;23.312;2023-04-06T08:32:08;13.77;;;10.27;;
62696;SDS011;48761;42.680;23.312;2023-04-06T08:34:34;17.77;;;11.30;;
62696;SDS011;48761;42.680;23.312;2023-04-06T08:37:00;15.98;;;10.57;;
62696;SDS011;48761;42.680;23.312;2023-04-06T08:39:26;15.35;;;10.48;;
62696;SDS011;48761;42.680;23.312;2023-04-06T08:41:54;18.42;;;11.23;;
62696;SDS011;48761;42.680;23.312;2023-04-06T08:44:20;14.60;;;10.32;;
62696;SDS011;48761;42.680;23.312;2023-04-06T08:46:46;14.55;;;10.65;;
62696;SDS011;48761;42.680;23.312;2023-04-06T08:49:12;13.05;;;9.82;;
62696;SDS011;48761;42.680;23.312;2023-04-06T08:51:41;16.25;;;9.77;;
62696;SDS011;48761;42.680;23.312;2023-04-06T08:54:08;17.88;;;9.85;;
62696;SDS011;48761;42.680;23.312;2023-04-06T08:56:37;15.00;;;9.13;;
62696;SDS011;48761;42.680;23.312;2023-04-06T08:59:03;14.25;;;9.75;;
62696;SDS011;48761;42.680;23.312;2023-04-06T09:01:31;25.75;;;12.13;;
62696;SDS011;48761;42.680;23.312;2023-04-06T09:04:02;17.73;;;10.70;;
62696;SDS011;48761;42.680;23.312;2023-04-06T09:06:29;15.48;;;10.05;;
62696;SDS011;48761;42.680;23.312;2023-04-06T09:08:55;18.70;;;10.40;;
62696;SDS011;48761;42.680;23.312;2023-04-06T09:11:24;16.77;;;10.85;;
62696;SDS011;48761;42.680;23.312;2023-04-06T09:13:51;17.23;;;10.75;;
62696;SDS011;48761;42.680;23.312;2023-04-06T09:16:19;13.88;;;10.02;;
62696;SDS011;48761;42.680;23.312;2023-04-06T09:18:46;14.07;;;9.52;;
62696;SDS011;48761;42.680;23.312;2023-04-06T09:21:12;15.35;;;10.18;;
62696;SDS011;48761;42.680;23.312;2023-04-06T09:23:39;16.50;;;10.20;;
62696;SDS011;48761;42.680;23.312;2023-04-06T09:26:06;15.05;;;10.18;;
62696;SDS011;48761;42.680;23.312;2023-04-06T09:28:49;23.58;;;11.68;;
62696;SDS011;48761;42.680;23.312;2023-04-06T09:31:21;13.65;;;9.63;;
62696;SDS011;48761;42.680;23.312;2023-04-06T09:33:49;17.38;;;11.30;;
62696;SDS011;48761;42.680;23.312;2023-04-06T09:36:15;15.85;;;10.48;;
62696;SDS011;48761;42.680;23.312;2023-04-06T09:38:53;18.15;;;10.90;;
62696;SDS011;48761;42.680;23.312;2023-04-06T09:41:24;13.93;;;9.80;;
62696;SDS011;48761;42.680;23.312;2023-04-06T09:43:52;16.05;;;9.68;;
62696;SDS011;48761;42.680;23.312;2023-04-06T09:46:27;16.58;;;11.60;;
62696;SDS011;48761;42.680;23.312;2023-04-06T09:48:57;21.98;;;11.50;;
62696;SDS011;48761;42.680;23.312;2023-04-06T09:51:25;20.23;;;11.00;;
62696;SDS011;48761;42.680;23.312;2023-04-06T09:53:54;21.77;;;12.20;;
62696;SDS011;48761;42.680;23.312;2023-04-06T09:56:23;15.93;;;10.35;;
62696;SDS011;48761;42.680;23.312;2023-04-06T09:58:54;16.10;;;9.57;;
62696;SDS011;48761;42.680;23.312;2023-04-06T10:01:26;14.68;;;9.43;;
62696;SDS011;48761;42.680;23.312;2023-04-06T10:06:27;18.90;;;10.95;;
62696;SDS011;48761;42.680;23.312;2023-04-06T10:08:57;16.48;;;9.18;;
62696;SDS011;48761;42.680;23.312;2023-04-06T10:11:23;13.75;;;9.30;;
62696;SDS011;48761;42.680;23.312;2023-04-06T10:13:49;16.48;;;10.55;;
62696;SDS011;48761;42.680;23.312;2023-04-06T10:16:15;17.00;;;9.77;;
62696;SDS011;48761;42.680;23.312;2023-04-06T10:18:44;12.95;;;9.63;;
62696;SDS011;48761;42.680;23.312;2023-04-06T10:26:19;17.35;;;10.32;;
62696;SDS011;48761;42.680;23.312;2023-04-06T10:28:47;18.13;;;9.05;;
62696;SDS011;48761;42.680;23.312;2023-04-06T10:31:14;12.60;;;9.23;;
62696;SDS011;48761;42.680;23.312;2023-04-06T10:33:40;19.38;;;10.02;;
62696;SDS011;48761;42.680;23.312;2023-04-06T10:36:13;15.18;;;9.75;;
62696;SDS011;48761;42.680;23.312;2023-04-06T10:38:41;13.93;;;10.25;;
62696;SDS011;48761;42.680;23.312;2023-04-06T10:41:08;15.45;;;9.52;;
62696;SDS011;48761;42.680;23.312;2023-04-06T10:43:38;14.45;;;9.45;;
62696;SDS011;48761;42.680;23.312;2023-04-06T10:46:06;19.25;;;10.52;;
62696;SDS011;48761;42.680;23.312;2023-04-06T10:48:41;15.27;;;10.10;;
62696;SDS011;48761;42.680;23.312;2023-04-06T10:51:12;14.88;;;10.38;;
62696;SDS011;48761;42.680;23.312;2023-04-06T10:53:43;15.38;;;9.88;;
62696;SDS011;48761;42.680;23.312;2023-04-06T10:56:13;15.75;;;10.45;;
62696;SDS011;48761;42.680;23.312;2023-04-06T10:58:44;14.32;;;9.48;;
62696;SDS011;48761;42.680;23.312;2023-04-06T11:01:11;12.52;;;9.48;;
62696;SDS011;48761;42.680;23.312;2023-04-06T11:03:57;16.13;;;10.15;;
62696;SDS011;48761;42.680;23.312;2023-04-06T11:06:28;15.65;;;10.85;;
62696;SDS011;48761;42.680;23.312;2023-04-06T11:08:55;16.35;;;10.68;;
62696;SDS011;48761;42.680;23.312;2023-04-06T11:11:23;15.65;;;9.48;;
62696;SDS011;48761;42.680;23.312;2023-04-06T11:16:21;12.93;;;9.77;;
62696;SDS011;48761;42.680;23.312;2023-04-06T11:18:54;17.25;;;10.88;;
62696;SDS011;48761;42.680;23.312;2023-04-06T11:21:42;17.77;;;10.25;;
62696;SDS011;48761;42.680;23.312;2023-04-06T11:24:12;15.32;;;9.60;;
62696;SDS011;48761;42.680;23.312;2023-04-06T11:26:44;16.08;;;9.70;;
62696;SDS011;48761;42.680;23.312;2023-04-06T11:29:14;14.60;;;10.15;;
62696;SDS011;48761;42.680;23.312;2023-04-06T11:31:53;13.52;;;9.25;;
62696;SDS011;48761;42.680;23.312;2023-04-06T11:34:23;11.27;;;8.95;;
62696;SDS011;48761;42.680;23.312;2023-04-06T11:36:54;16.70;;;9.95;;
62696;SDS011;48761;42.680;23.312;2023-04-06T11:39:22;14.63;;;9.52;;
62696;SDS011;48761;42.680;23.312;2023-04-06T11:41:50;14.98;;;9.68;;
62696;SDS011;48761;42.680;23.312;2023-04-06T11:44:29;14.88;;;9.55;;
62696;SDS011;48761;42.680;23.312;2023-04-06T11:47:02;18.85;;;11.90;;
62696;SDS011;48761;42.680;23.312;2023-04-06T11:49:30;12.32;;;8.73;;
62696;SDS011;48761;42.680;23.312;2023-04-06T11:51:59;12.80;;;8.63;;
62696;SDS011;48761;42.680;23.312;2023-04-06T11:54:36;13.63;;;7.90;;
62696;SDS011;48761;42.680;23.312;2023-04-06T11:57:04;12.65;;;8.93;;
62696;SDS011;48761;42.680;23.312;2023-04-06T11:59:31;13.85;;;8.95;;
62696;SDS011;48761;42.680;23.312;2023-04-06T12:01:57;13.07;;;9.10;;
62696;SDS011;48761;42.680;23.312;2023-04-06T12:04:24;14.05;;;9.80;;
62696;SDS011;48761;42.680;23.312;2023-04-06T12:06:51;12.10;;;8.65;;
62696;SDS011;48761;42.680;23.312;2023-04-06T12:09:20;15.23;;;10.27;;
62696;SDS011;48761;42.680;23.312;2023-04-06T12:11:46;15.32;;;10.23;;
62696;SDS011;48761;42.680;23.312;2023-04-06T12:14:14;17.38;;;9.77;;
62696;SDS011;48761;42.680;23.312;2023-04-06T12:16:42;12.15;;;9.38;;
62696;SDS011;48761;42.680;23.312;2023-04-06T12:19:10;14.82;;;9.98;;
62696;SDS011;48761;42.680;23.312;2023-04-06T12:21:36;12.20;;;9.30;;
62696;SDS011;48761;42.680;23.312;2023-04-06T12:24:03;14.73;;;8.88;;
62696;SDS011;48761;42.680;23.312;2023-04-06T12:26:31;11.98;;;8.93;;
62696;SDS011;48761;42.680;23.312;2023-04-06T12:28:58;13.95;;;9.57;;
62696;SDS011;48761;42.680;23.312;2023-04-06T12:31:26;14.25;;;9.63;;
62696;SDS011;48761;42.680;23.312;2023-04-06T12:33:54;15.38;;;9.93;;
62696;SDS011;48761;42.680;23.312;2023-04-06T12:36:21;10.38;;;8.15;;
62696;SDS011;48761;42.680;23.312;2023-04-06T12:38:47;12.52;;;8.93;;
62696;SDS011;48761;42.680;23.312;2023-04-06T12:41:15;14.52;;;9.13;;
62696;SDS011;48761;42.680;23.312;2023-04-06T12:43:42;16.23;;;9.20;;
62696;SDS011;48761;42.680;23.312;2023-04-06T12:46:09;12.93;;;9.30;;
62696;SDS011;48761;42.680;23.312;2023-04-06T12:48:36;16.02;;;9.20;;
62696;SDS011;48761;42.680;23.312;2023-04-06T12:51:05;14.48;;;8.80;;
62696;SDS011;48761;42.680;23.312;2023-04-06T12:53:32;13.73;;;9.77;;
62696;SDS011;48761;42.680;23.312;2023-04-06T12:55:59;13.63;;;9.48;;
62696;SDS011;48761;42.680;23.312;2023-04-06T12:58:25;17.27;;;11.00;;
62696;SDS011;48761;42.680;23.312;2023-04-06T13:00:51;13.38;;;9.77;;
62696;SDS011;48761;42.680;23.312;2023-04-06T13:03:17;14.85;;;9.50;;
62696;SDS011;48761;42.680;23.312;2023-04-06T13:05:45;16.75;;;10.25;;
62696;SDS011;48761;42.680;23.312;2023-04-06T13:08:15;12.68;;;9.07;;
62696;SDS011;48761;42.680;23.312;2023-04-06T13:10:48;14.57;;;9.35;;
62696;SDS011;48761;42.680;23.312;2023-04-06T13:13:17;16.35;;;9.65;;
62696;SDS011;48761;42.680;23.312;2023-04-06T13:15:46;15.52;;;10.10;;
62696;SDS011;48761;42.680;23.312;2023-04-06T13:18:11;14.35;;;9.65;;
62696;SDS011;48761;42.680;23.312;2023-04-06T13:20:37;14.85;;;9.93;;
62696;SDS011;48761;42.680;23.312;2023-04-06T13:23:03;18.13;;;10.27;;
62696;SDS011;48761;42.680;23.312;2023-04-06T13:25:29;12.77;;;9.38;;
62696;SDS011;48761;42.680;23.312;2023-04-06T13:27:56;16.58;;;10.25;;
62696;SDS011;48761;42.680;23.312;2023-04-06T13:30:22;17.35;;;10.60;;
62696;SDS011;48761;42.680;23.312;2023-04-06T13:32:47;16.85;;;10.00;;
62696;SDS011;48761;42.680;23.312;2023-04-06T13:35:13;16.38;;;10.98;;
62696;SDS011;48761;42.680;23.312;2023-04-06T13:37:39;17.10;;;11.48;;
62696;SDS011;48761;42.680;23.312;2023-04-06T13:40:06;13.52;;;9.40;;
62696;SDS011;48761;42.680;23.312;2023-04-06T13:42:32;16.38;;;8.55;;
62696;SDS011;48761;42.680;23.312;2023-04-06T13:44:58;13.55;;;8.02;;
62696;SDS011;48761;42.680;23.312;2023-04-06T13:47:25;12.75;;;8.20;;
62696;SDS011;48761;42.680;23.312;2023-04-06T13:49:50;10.93;;;8.15;;
62696;SDS011;48761;42.680;23.312;2023-04-06T13:52:16;15.10;;;8.45;;
62696;SDS011;48761;42.680;23.312;2023-04-06T13:54:42;12.70;;;8.25;;
62696;SDS011;48761;42.680;23.312;2023-04-06T13:57:08;12.55;;;7.82;;
62696;SDS011;48761;42.680;23.312;2023-04-06T13:59:36;15.05;;;8.90;;
62696;SDS011;48761;42.680;23.312;2023-04-06T14:02:05;14.45;;;7.80;;
62696;SDS011;48761;42.680;23.312;2023-04-06T14:04:33;12.07;;;7.90;;
62696;SDS011;48761;42.680;23.312;2023-04-06T14:07:00;16.63;;;9.13;;
62696;SDS011;48761;42.680;23.312;2023-04-06T14:09:27;11.70;;;8.68;;
62696;SDS011;48761;42.680;23.312;2023-04-06T14:11:53;14.77;;;8.55;;
62696;SDS011;48761;42.680;23.312;2023-04-06T14:14:20;12.50;;;8.65;;
62696;SDS011;48761;42.680;23.312;2023-04-06T14:16:46;15.68;;;8.18;;
62696;SDS011;48761;42.680;23.312;2023-04-06T14:19:14;13.85;;;8.93;;
62696;SDS011;48761;42.680;23.312;2023-04-06T14:21:42;14.02;;;9.00;;
62696;SDS011;48761;42.680;23.312;2023-04-06T14:24:09;12.90;;;8.48;;